sensor_id;sensor_type;location;lat;lon;timestamp;pressure;altitude;pressure_sealevel;temperature;humidity
22930;BME280;11630;42.660;23.292;2023-05-20T00:01:53;68960.59;;;12.97;100.00
22930;BME280;11630;42.660;23.292;2023-05-20T00:04:24;68966.32;;;13.04;100.00
22930;BME280;11630;42.660;23.292;2023-05-20T00:06:55;68979.67;;;13.12;100.00
22930;BME280;11630;42.660;23.292;2023-05-20T00:09:26;68985.94;;;13.19;100.00
22930;BME280;11630;42.660;23.292;2023-05-20T00:11:57;68960.86;;;12.96;100.00
22930;BME280;11630;42.660;23.292;2023-05-20T00:14:28;68942.30;;;12.79;100.00
22930;BME280;11630;42.660;23.292;2023-05-20T00:16:59;68946.12;;;12.80;100.00
22930;BME280;11630;42.660;23.292;2023-05-20T00:19:30;68921.33;;;12.61;100.00
22930;BME280;11630;42.660;23.292;2023-05-20T00:22:00;68907.97;;;12.50;100.00
22930;BME280;11630;42.660;23.292;2023-05-20T00:24:32;68911.79;;;12.49;100.00
22930;BME280;11630;42.660;23.292;2023-05-20T00:27:03;68913.98;;;12.51;100.00
22930;BME280;11630;42.660;23.292;2023-05-20T00:29:33;68926.23;;;12.66;100.00
22930;BME280;11630;42.660;23.292;2023-05-20T00:32:05;68901.17;;;12.40;100.00
22930;BME280;11630;42.660;23.292;2023-05-20T00:34:41;68884.83;;;12.30;100.00
22930;BME280;11630;42.660;23.292;2023-05-20T00:37:11;68901.70;;;12.41;100.00
22930;BME280;11630;42.660;23.292;2023-05-20T00:39:42;68903.63;;;12.41;100.00
22930;BME280;11630;42.660;23.292;2023-05-20T00:42:19;68912.34;;;12.54;100.00
22930;BME280;11630;42.660;23.292;2023-05-20T00:44:49;68910.98;;;12.49;100.00
22930;BME280;11630;42.660;23.292;2023-05-20T00:47:28;68892.72;;;12.34;100.00
22930;BME280;11630;42.660;23.292;2023-05-20T00:50:01;68901.98;;;12.42;100.00
22930;BME280;11630;42.660;23.292;2023-05-20T00:52:33;68895.44;;;12.36;100.00
22930;BME280;11630;42.660;23.292;2023-05-20T00:55:03;68903.89;;;12.43;100.00
22930;BME280;11630;42.660;23.292;2023-05-20T00:57:34;68909.07;;;12.44;100.00
22930;BME280;11630;42.660;23.292;2023-05-20T01:00:07;68919.97;;;12.59;100.00
22930;BME280;11630;42.660;23.292;2023-05-20T01:02:40;68934.94;;;12.69;100.00
22930;BME280;11630;42.660;23.292;2023-05-20T01:05:12;68935.49;;;12.74;100.00
22930;BME280;11630;42.660;23.292;2023-05-20T01:07:43;68925.41;;;12.66;100.00
22930;BME280;11630;42.660;23.292;2023-05-20T01:10:14;68917.52;;;12.55;100.00
22930;BME280;11630;42.660;23.292;2023-05-20T01:12:53;68931.13;;;12.65;100.00
22930;BME280;11630;42.660;23.292;2023-05-20T01:15:25;68936.05;;;12.77;100.00
22930;BME280;11630;42.660;23.292;2023-05-20T01:17:59;68950.48;;;12.84;100.00
22930;BME280;11630;42.660;23.292;2023-05-20T01:20:29;68955.68;;;12.93;100.00
22930;BME280;11630;42.660;23.292;2023-05-20T01:23:00;68951.87;;;12.89;100.00
22930;BME280;11630;42.660;23.292;2023-05-20T01:25:31;68961.95;;;12.92;100.00
22930;BME280;11630;42.660;23.292;2023-05-20T01:28:01;68963.31;;;12.97;100.00
22930;BME280;11630;42.660;23.292;2023-05-20T01:30:37;68956.51;;;12.92;100.00
22930;BME280;11630;42.660;23.292;2023-05-20T01:33:09;68969.31;;;13.05;100.00
22930;BME280;11630;42.660;23.292;2023-05-20T01:35:42;68958.13;;;12.96;100.00
22930;BME280;11630;42.660;23.292;2023-05-20T01:38:12;68942.03;;;12.80;100.00
22930;BME280;11630;42.660;23.292;2023-05-20T01:40:44;68962.49;;;12.93;100.00
22930;BME280;11630;42.660;23.292;2023-05-20T01:43:15;68942.05;;;12.83;100.00
22930;BME280;11630;42.660;23.292;2023-05-20T01:45:46;68952.14;;;12.88;100.00
22930;BME280;11630;42.660;23.292;2023-05-20T01:48:15;68948.05;;;12.88;100.00
22930;BME280;11630;42.660;23.292;2023-05-20T01:50:46;68953.78;;;12.90;100.00
22930;BME280;11630;42.660;23.292;2023-05-20T01:53:16;68957.31;;;12.92;100.00
22930;BME280;11630;42.660;23.292;2023-05-20T01:55:46;68969.59;;;12.99;100.00
22930;BME280;11630;42.660;23.292;2023-05-20T01:58:17;68974.21;;;13.02;100.00
22930;BME280;11630;42.660;23.292;2023-05-20T02:00:48;68965.50;;;12.99;100.00
22930;BME280;11630;42.660;23.292;2023-05-20T02:03:18;68948.86;;;12.85;100.00
22930;BME280;11630;42.660;23.292;2023-05-20T02:05:50;68950.50;;;12.89;100.00
22930;BME280;11630;42.660;23.292;2023-05-20T02:08:20;68958.14;;;12.94;100.00
22930;BME280;11630;42.660;23.292;2023-05-20T02:10:51;68936.59;;;12.75;100.00
22930;BME280;11630;42.660;23.292;2023-05-20T02:13:22;68923.23;;;12.59;100.00
22930;BME280;11630;42.660;23.292;2023-05-20T02:15:53;68915.06;;;12.54;100.00
22930;BME280;11630;42.660;23.292;2023-05-20T02:18:24;68910.71;;;12.55;100.00
22930;BME280;11630;42.660;23.292;2023-05-20T02:20:56;68916.16;;;12.55;100.00
22930;BME280;11630;42.660;23.292;2023-05-20T02:23:27;68897.63;;;12.36;100.00
22930;BME280;11630;42.660;23.292;2023-05-20T02:25:57;68869.02;;;12.14;100.00
22930;BME280;11630;42.660;23.292;2023-05-20T02:28:28;68876.66;;;12.23;100.00
22930;BME280;11630;42.660;23.292;2023-05-20T02:30:59;68884.83;;;12.26;100.00
22930;BME280;11630;42.660;23.292;2023-05-20T02:33:30;68887.28;;;12.27;100.00
22930;BME280;11630;42.660;23.292;2023-05-20T02:36:01;68874.75;;;12.13;100.00
22930;BME280;11630;42.660;23.292;2023-05-20T02:38:32;68846.15;;;11.95;100.00
22930;BME280;11630;42.660;23.292;2023-05-20T02:41:03;68852.14;;;11.96;100.00
22930;BME280;11630;42.660;23.292;2023-05-20T02:43:34;68854.86;;;12.01;100.00
22930;BME280;11630;42.660;23.292;2023-05-20T02:46:04;68867.11;;;12.06;100.00
22930;BME280;11630;42.660;23.292;2023-05-20T02:48:35;68866.86;;;12.14;100.00
22930;BME280;11630;42.660;23.292;2023-05-20T02:51:06;68884.00;;;12.24;100.00
22930;BME280;11630;42.660;23.292;2023-05-20T02:53:37;68882.09;;;12.16;100.00
22930;BME280;11630;42.660;23.292;2023-05-20T02:56:08;68866.30;;;12.09;100.00
22930;BME280;11630;42.660;23.292;2023-05-20T02:58:40;68853.51;;;11.96;100.00
22930;BME280;11630;42.660;23.292;2023-05-20T03:01:10;68841.25;;;11.86;100.00
22930;BME280;11630;42.660;23.292;2023-05-20T03:03:41;68848.05;;;11.91;100.00
22930;BME280;11630;42.660;23.292;2023-05-20T03:06:12;68840.42;;;11.84;100.00
22930;BME280;11630;42.660;23.292;2023-05-20T03:08:43;68835.81;;;11.81;100.00
22930;BME280;11630;42.660;23.292;2023-05-20T03:11:14;68827.90;;;11.70;100.00
22930;BME280;11630;42.660;23.292;2023-05-20T03:13:45;68824.11;;;11.71;100.00
22930;BME280;11630;42.660;23.292;2023-05-20T03:16:16;68816.48;;;11.67;100.00
22930;BME280;11630;42.660;23.292;2023-05-20T03:18:46;68833.89;;;11.78;100.00
22930;BME280;11630;42.660;23.292;2023-05-20T03:21:17;68840.71;;;11.88;100.00
22930;BME280;11630;42.660;23.292;2023-05-20T03:23:48;68859.77;;;12.00;100.00
22930;BME280;11630;42.660;23.292;2023-05-20T03:26:18;68862.76;;;12.07;100.00
22930;BME280;11630;42.660;23.292;2023-05-20T03:28:49;68871.19;;;12.06;100.00
22930;BME280;11630;42.660;23.292;2023-05-20T03:31:18;68871.20;;;12.18;100.00
22930;BME280;11630;42.660;23.292;2023-05-20T03:33:49;68883.73;;;12.27;100.00
22930;BME280;11630;42.660;23.292;2023-05-20T03:36:20;68879.66;;;12.20;100.00
22930;BME280;11630;42.660;23.292;2023-05-20T03:38:51;68869.31;;;12.13;100.00
22930;BME280;11630;42.660;23.292;2023-05-20T03:41:22;68883.73;;;12.25;100.00
22930;BME280;11630;42.660;23.292;2023-05-20T03:43:53;68882.64;;;12.28;100.00
22930;BME280;11630;42.660;23.292;2023-05-20T03:46:23;68919.16;;;12.49;100.00
22930;BME280;11630;42.660;23.292;2023-05-20T03:48:53;68903.09;;;12.46;100.00
22930;BME280;11630;42.660;23.292;2023-05-20T03:51:24;68906.34;;;12.46;100.00
22930;BME280;11630;42.660;23.292;2023-05-20T03:53:56;68909.63;;;12.49;100.00
22930;BME280;11630;42.660;23.292;2023-05-20T03:56:27;68902.80;;;12.44;100.00
22930;BME280;11630;42.660;23.292;2023-05-20T03:58:57;68928.67;;;12.62;100.00
22930;BME280;11630;42.660;23.292;2023-05-20T04:01:27;68938.48;;;12.71;100.00
22930;BME280;11630;42.660;23.292;2023-05-20T04:03:58;68943.95;;;12.81;100.00
22930;BME280;11630;42.660;23.292;2023-05-20T04:06:29;68954.05;;;12.91;100.00
22930;BME280;11630;42.660;23.292;2023-05-20T04:09:00;68951.30;;;12.81;100.00
22930;BME280;11630;42.660;23.292;2023-05-20T04:11:31;68945.58;;;12.82;100.00
22930;BME280;11630;42.660;23.292;2023-05-20T04:14:02;68974.77;;;13.05;100.00
22930;BME280;11630;42.660;23.292;2023-05-20T04:16:33;68986.49;;;13.22;100.00
22930;BME280;11630;42.660;23.292;2023-05-20T04:19:04;69027.12;;;13.53;100.00
22930;BME280;11630;42.660;23.292;2023-05-20T04:21:35;69027.66;;;13.53;100.00
22930;BME280;11630;42.660;23.292;2023-05-20T04:24:06;69017.30;;;13.44;100.00
22930;BME280;11630;42.660;23.292;2023-05-20T04:26:37;68983.22;;;13.14;100.00
22930;BME280;11630;42.660;23.292;2023-05-20T04:29:07;69009.39;;;13.40;100.00
22930;BME280;11630;42.660;23.292;2023-05-20T04:31:38;69008.83;;;13.40;100.00
22930;BME280;11630;42.660;23.292;2023-05-20T04:34:09;69017.58;;;13.38;100.00
22930;BME280;11630;42.660;23.292;2023-05-20T04:36:40;69014.56;;;13.46;100.00
22930;BME280;11630;42.660;23.292;2023-05-20T04:39:11;69010.21;;;13.45;100.00
22930;BME280;11630;42.660;23.292;2023-05-20T04:41:42;69014.02;;;13.43;100.00
22930;BME280;11630;42.660;23.292;2023-05-20T04:44:12;69046.75;;;13.68;100.00
22930;BME280;11630;42.660;23.292;2023-05-20T04:46:44;69050.55;;;13.77;100.00
22930;BME280;11630;42.660;23.292;2023-05-20T04:49:15;69082.20;;;14.05;100.00
22930;BME280;11630;42.660;23.292;2023-05-20T04:51:46;69107.59;;;14.27;100.00
22930;BME280;11630;42.660;23.292;2023-05-20T04:54:17;69098.59;;;14.20;100.00
22930;BME280;11630;42.660;23.292;2023-05-20T04:56:47;69126.70;;;14.47;100.00
22930;BME280;11630;42.660;23.292;2023-05-20T04:59:19;69161.92;;;14.78;100.00
22930;BME280;11630;42.660;23.292;2023-05-20T05:01:51;69201.51;;;15.10;100.00
22930;BME280;11630;42.660;23.292;2023-05-20T05:04:22;69174.20;;;14.83;100.00
22930;BME280;11630;42.660;23.292;2023-05-20T05:06:53;69180.47;;;14.95;100.00
22930;BME280;11630;42.660;23.292;2023-05-20T05:09:24;69195.50;;;15.05;100.00
22930;BME280;11630;42.660;23.292;2023-05-20T05:11:55;69230.19;;;15.38;100.00
22930;BME280;11630;42.660;23.292;2023-05-20T05:14:25;69232.66;;;15.38;100.00
22930;BME280;11630;42.660;23.292;2023-05-20T05:16:56;69276.64;;;15.77;100.00
22930;BME280;11630;42.660;23.292;2023-05-20T05:19:26;69290.28;;;15.97;100.00
22930;BME280;11630;42.660;23.292;2023-05-20T05:21:57;69291.94;;;15.91;100.00
22930;BME280;11630;42.660;23.292;2023-05-20T05:24:28;69289.48;;;15.90;100.00
22930;BME280;11630;42.660;23.292;2023-05-20T05:26:58;69315.17;;;16.11;100.00
22930;BME280;11630;42.660;23.292;2023-05-20T05:29:29;69415.51;;;17.13;100.00
22930;BME280;11630;42.660;23.292;2023-05-20T05:32:00;69501.17;;;17.87;100.00
22930;BME280;11630;42.660;23.292;2023-05-20T05:34:31;69437.44;;;17.28;100.00
22930;BME280;11630;42.660;23.292;2023-05-20T05:37:04;69552.94;;;18.33;100.00
22930;BME280;11630;42.660;23.292;2023-05-20T05:39:34;69620.33;;;18.89;100.00
22930;BME280;11630;42.660;23.292;2023-05-20T05:42:07;69580.59;;;18.54;100.00
22930;BME280;11630;42.660;23.292;2023-05-20T05:44:38;69532.14;;;18.07;100.00
22930;BME280;11630;42.660;23.292;2023-05-20T05:47:09;69509.97;;;17.85;100.00
22930;BME280;11630;42.660;23.292;2023-05-20T05:49:40;69474.64;;;17.60;100.00
22930;BME280;11630;42.660;23.292;2023-05-20T05:52:11;69435.52;;;17.20;100.00
22930;BME280;11630;42.660;23.292;2023-05-20T05:54:42;69416.09;;;17.06;100.00
22930;BME280;11630;42.660;23.292;2023-05-20T05:57:14;69410.60;;;17.01;100.00
22930;BME280;11630;42.660;23.292;2023-05-20T05:59:45;69419.68;;;16.98;100.00
22930;BME280;11630;42.660;23.292;2023-05-20T06:02:15;69444.56;;;17.30;100.00
22930;BME280;11630;42.660;23.292;2023-05-20T06:04:46;69471.91;;;17.57;100.00
22930;BME280;11630;42.660;23.292;2023-05-20T06:07:17;69532.69;;;18.10;100.00
22930;BME280;11630;42.660;23.292;2023-05-20T06:09:48;69636.76;;;19.09;100.00
22930;BME280;11630;42.660;23.292;2023-05-20T06:12:19;69635.42;;;18.97;100.00
22930;BME280;11630;42.660;23.292;2023-05-20T06:14:52;69691.34;;;19.50;100.00
22930;BME280;11630;42.660;23.292;2023-05-20T06:17:23;69609.92;;;18.80;100.00
22930;BME280;11630;42.660;23.292;2023-05-20T06:19:54;69632.64;;;19.04;100.00
22930;BME280;11630;42.660;23.292;2023-05-20T06:22:24;69665.82;;;19.33;100.00
22930;BME280;11630;42.660;23.292;2023-05-20T06:24:56;69591.25;;;18.70;100.00
22930;BME280;11630;42.660;23.292;2023-05-20T06:27:27;69635.13;;;19.00;100.00
22930;BME280;11630;42.660;23.292;2023-05-20T06:29:56;69618.45;;;18.81;100.00
22930;BME280;11630;42.660;23.292;2023-05-20T06:32:27;69581.17;;;18.53;100.00
22930;BME280;11630;42.660;23.292;2023-05-20T06:34:59;69632.06;;;19.06;100.00
22930;BME280;11630;42.660;23.292;2023-05-20T06:37:29;69656.50;;;19.22;100.00
22930;BME280;11630;42.660;23.292;2023-05-20T06:40:01;69684.73;;;19.49;100.00
22930;BME280;11630;42.660;23.292;2023-05-20T06:42:32;69641.42;;;19.07;100.00
22930;BME280;11630;42.660;23.292;2023-05-20T06:45:02;69720.59;;;19.88;100.00
22930;BME280;11630;42.660;23.292;2023-05-20T06:47:33;69749.99;;;20.08;100.00
22930;BME280;11630;42.660;23.292;2023-05-20T06:50:04;69785.09;;;20.40;96.01
22930;BME280;11630;42.660;23.292;2023-05-20T06:52:34;69841.34;;;20.92;96.71
22930;BME280;11630;42.660;23.292;2023-05-20T06:55:06;69877.35;;;21.16;90.16
22930;BME280;11630;42.660;23.292;2023-05-20T06:57:36;69863.82;;;21.15;84.93
22930;BME280;11630;42.660;23.292;2023-05-20T07:00:08;69853.66;;;21.07;82.97
22930;BME280;11630;42.660;23.292;2023-05-20T07:02:42;69840.81;;;20.89;81.85
22930;BME280;11630;42.660;23.292;2023-05-20T07:05:13;69896.82;;;21.35;88.57
22930;BME280;11630;42.660;23.292;2023-05-20T07:07:43;69889.67;;;21.31;76.22
22930;BME280;11630;42.660;23.292;2023-05-20T07:10:14;69909.45;;;21.46;73.90
22930;BME280;11630;42.660;23.292;2023-05-20T07:12:44;69928.22;;;21.56;69.75
22930;BME280;11630;42.660;23.292;2023-05-20T07:15:15;69906.30;;;21.26;73.70
22930;BME280;11630;42.660;23.292;2023-05-20T07:17:45;69930.98;;;21.56;70.70
22930;BME280;11630;42.660;23.292;2023-05-20T07:20:15;69895.98;;;21.38;66.46
22930;BME280;11630;42.660;23.292;2023-05-20T07:22:46;69931.59;;;21.44;67.81
22930;BME280;11630;42.660;23.292;2023-05-20T07:25:16;69938.02;;;21.74;66.74
22930;BME280;11630;42.660;23.292;2023-05-20T07:27:49;69983.98;;;22.02;65.18
22930;BME280;11630;42.660;23.292;2023-05-20T07:30:19;69974.67;;;21.91;63.48
22930;BME280;11630;42.660;23.292;2023-05-20T07:32:49;69952.56;;;21.86;60.86
22930;BME280;11630;42.660;23.292;2023-05-20T07:35:20;69881.73;;;21.20;63.34
22930;BME280;11630;42.660;23.292;2023-05-20T07:37:50;69906.47;;;21.40;64.30
22930;BME280;11630;42.660;23.292;2023-05-20T07:40:21;69924.02;;;21.61;64.04
22930;BME280;11630;42.660;23.292;2023-05-20T07:42:52;69928.13;;;21.66;64.03
22930;BME280;11630;42.660;23.292;2023-05-20T07:45:23;69933.86;;;21.74;62.98
22930;BME280;11630;42.660;23.292;2023-05-20T07:47:54;69886.61;;;21.34;65.25
22930;BME280;11630;42.660;23.292;2023-05-20T07:50:25;69956.41;;;21.90;61.44
22930;BME280;11630;42.660;23.292;2023-05-20T07:52:56;69958.05;;;21.94;62.17
22930;BME280;11630;42.660;23.292;2023-05-20T07:55:27;70027.35;;;22.49;57.97
22930;BME280;11630;42.660;23.292;2023-05-20T07:57:58;70027.35;;;22.49;57.97
22930;BME280;11630;42.660;23.292;2023-05-20T08:00:28;70015.30;;;22.33;58.62
22930;BME280;11630;42.660;23.292;2023-05-20T08:02:58;70003.18;;;22.25;57.30
22930;BME280;11630;42.660;23.292;2023-05-20T08:05:29;69977.76;;;22.19;59.75
22930;BME280;11630;42.660;23.292;2023-05-20T08:08:00;69960.00;;;21.92;59.92
22930;BME280;11630;42.660;23.292;2023-05-20T08:10:31;69960.00;;;21.92;59.92
22930;BME280;11630;42.660;23.292;2023-05-20T08:13:01;69991.06;;;22.16;57.58
22930;BME280;11630;42.660;23.292;2023-05-20T08:15:32;69988.55;;;22.20;57.27
22930;BME280;11630;42.660;23.292;2023-05-20T08:18:04;69994.28;;;22.29;59.44
22930;BME280;11630;42.660;23.292;2023-05-20T08:20:36;70034.22;;;22.54;59.92
22930;BME280;11630;42.660;23.292;2023-05-20T08:23:07;70058.86;;;22.86;55.80
22930;BME280;11630;42.660;23.292;2023-05-20T08:25:38;70040.20;;;22.69;58.34
22930;BME280;11630;42.660;23.292;2023-05-20T08:28:08;70104.25;;;23.26;56.00
22930;BME280;11630;42.660;23.292;2023-05-20T08:30:39;70104.42;;;23.09;56.52
22930;BME280;11630;42.660;23.292;2023-05-20T08:33:11;70103.75;;;23.21;57.55
22930;BME280;11630;42.660;23.292;2023-05-20T08:35:41;70011.48;;;22.25;58.73
22930;BME280;11630;42.660;23.292;2023-05-20T08:38:12;69995.13;;;22.26;58.14
22930;BME280;11630;42.660;23.292;2023-05-20T08:40:43;69994.31;;;22.24;57.52
22930;BME280;11630;42.660;23.292;2023-05-20T08:43:13;70069.05;;;22.94;57.88
22930;BME280;11630;42.660;23.292;2023-05-20T08:45:44;70018.48;;;22.51;57.48
22930;BME280;11630;42.660;23.292;2023-05-20T08:48:16;70030.73;;;22.42;59.56
22930;BME280;11630;42.660;23.292;2023-05-20T08:50:51;69964.94;;;21.96;59.74
22930;BME280;11630;42.660;23.292;2023-05-20T08:53:22;70040.02;;;22.58;56.84
22930;BME280;11630;42.660;23.292;2023-05-20T08:55:59;70040.02;;;22.58;56.84
22930;BME280;11630;42.660;23.292;2023-05-20T08:58:30;70010.56;;;22.38;58.54
22930;BME280;11630;42.660;23.292;2023-05-20T09:01:02;70072.09;;;22.96;57.79
22930;BME280;11630;42.660;23.292;2023-05-20T09:03:33;69935.45;;;21.83;61.18
22930;BME280;11630;42.660;23.292;2023-05-20T09:06:15;69935.45;;;21.83;61.18
22930;BME280;11630;42.660;23.292;2023-05-20T09:08:36;70003.38;;;22.36;59.88
22930;BME280;11630;42.660;23.292;2023-05-20T09:11:08;69993.52;;;22.20;59.99
22930;BME280;11630;42.660;23.292;2023-05-20T09:13:39;70050.97;;;22.73;57.21
22930;BME280;11630;42.660;23.292;2023-05-20T09:16:11;70050.97;;;22.73;57.21
22930;BME280;11630;42.660;23.292;2023-05-20T09:18:42;70125.67;;;23.19;54.98
22930;BME280;11630;42.660;23.292;2023-05-20T09:21:12;70157.34;;;23.73;54.59
22930;BME280;11630;42.660;23.292;2023-05-20T09:23:47;70157.34;;;23.73;54.59
22930;BME280;11630;42.660;23.292;2023-05-20T09:26:18;70184.94;;;23.90;54.64
22930;BME280;11630;42.660;23.292;2023-05-20T09:28:49;70216.91;;;24.11;52.06
22930;BME280;11630;42.660;23.292;2023-05-20T09:31:20;70285.84;;;24.64;50.41
22930;BME280;11630;42.660;23.292;2023-05-20T09:33:52;70242.65;;;24.50;49.67
22930;BME280;11630;42.660;23.292;2023-05-20T09:36:23;70258.69;;;24.57;51.45
22930;BME280;11630;42.660;23.292;2023-05-20T09:39:00;70248.47;;;24.51;50.49
22930;BME280;11630;42.660;23.292;2023-05-20T09:41:33;70270.50;;;24.69;51.12
22930;BME280;11630;42.660;23.292;2023-05-20T09:44:00;70314.69;;;24.96;51.05
22930;BME280;11630;42.660;23.292;2023-05-20T09:46:31;70264.76;;;24.60;52.47
22930;BME280;11630;42.660;23.292;2023-05-20T09:49:03;70229.08;;;24.17;52.09
22930;BME280;11630;42.660;23.292;2023-05-20T09:51:33;70197.34;;;23.98;53.87
22930;BME280;11630;42.660;23.292;2023-05-20T09:54:06;70194.02;;;23.97;54.65
22930;BME280;11630;42.660;23.292;2023-05-20T09:56:39;70278.49;;;24.75;52.85
22930;BME280;11630;42.660;23.292;2023-05-20T09:59:12;70247.67;;;24.47;54.61
22930;BME280;11630;42.660;23.292;2023-05-20T10:01:43;70296.27;;;24.76;53.08
22930;BME280;11630;42.660;23.292;2023-05-20T10:04:15;70214.66;;;24.14;52.12
22930;BME280;11630;42.660;23.292;2023-05-20T10:09:54;70185.34;;;23.77;53.19
22930;BME280;11630;42.660;23.292;2023-05-20T10:12:35;69996.08;;;22.13;58.09
22930;BME280;11630;42.660;23.292;2023-05-20T10:15:22;70110.20;;;23.13;55.94
22930;BME280;11630;42.660;23.292;2023-05-20T10:18:14;70168.38;;;23.80;53.69
22930;BME280;11630;42.660;23.292;2023-05-20T10:20:47;70248.63;;;24.34;51.11
22930;BME280;11630;42.660;23.292;2023-05-20T10:23:27;70311.12;;;24.91;47.51
22930;BME280;11630;42.660;23.292;2023-05-20T10:25:56;70225.05;;;24.31;48.45
22930;BME280;11630;42.660;23.292;2023-05-20T10:28:32;70115.28;;;23.33;52.17
22930;BME280;11630;42.660;23.292;2023-05-20T10:31:21;70158.78;;;23.65;52.49
22930;BME280;11630;42.660;23.292;2023-05-20T10:33:56;70157.61;;;23.74;52.33
22930;BME280;11630;42.660;23.292;2023-05-20T10:36:30;70213.27;;;24.14;48.42
22930;BME280;11630;42.660;23.292;2023-05-20T10:39:04;70223.69;;;24.29;48.82
22930;BME280;11630;42.660;23.292;2023-05-20T10:41:35;70309.52;;;25.11;48.39
22930;BME280;11630;42.660;23.292;2023-05-20T10:44:06;70229.94;;;24.41;48.38
22930;BME280;11630;42.660;23.292;2023-05-20T10:46:39;70250.32;;;24.59;46.37
22930;BME280;11630;42.660;23.292;2023-05-20T10:49:19;70259.73;;;24.63;46.11
22930;BME280;11630;42.660;23.292;2023-05-20T10:51:49;70188.47;;;23.97;46.24
22930;BME280;11630;42.660;23.292;2023-05-20T10:54:20;70173.83;;;23.90;47.00
22930;BME280;11630;42.660;23.292;2023-05-20T10:56:52;70245.00;;;24.34;46.11
22930;BME280;11630;42.660;23.292;2023-05-20T10:59:26;70180.83;;;23.83;48.59
22930;BME280;11630;42.660;23.292;2023-05-20T11:01:58;70243.22;;;24.48;46.34
22930;BME280;11630;42.660;23.292;2023-05-20T11:04:30;70210.53;;;24.12;46.46
22930;BME280;11630;42.660;23.292;2023-05-20T11:07:00;70266.86;;;24.72;45.75
22930;BME280;11630;42.660;23.292;2023-05-20T11:09:31;70282.02;;;24.84;44.44
22930;BME280;11630;42.660;23.292;2023-05-20T11:12:02;70364.18;;;25.48;43.74
22930;BME280;11630;42.660;23.292;2023-05-20T11:14:31;70253.31;;;24.66;43.62
22930;BME280;11630;42.660;23.292;2023-05-20T11:17:02;70427.02;;;26.05;40.65
22930;BME280;11630;42.660;23.292;2023-05-20T11:19:35;70392.28;;;25.76;41.82
22930;BME280;11630;42.660;23.292;2023-05-20T11:22:08;70419.56;;;25.99;42.48
22930;BME280;11630;42.660;23.292;2023-05-20T11:24:38;70269.39;;;24.68;43.27
22930;BME280;11630;42.660;23.292;2023-05-20T11:27:08;70234.14;;;24.38;45.40
22930;BME280;11630;42.660;23.292;2023-05-20T11:29:40;70281.98;;;24.86;44.93
22930;BME280;11630;42.660;23.292;2023-05-20T11:32:10;70272.42;;;24.72;45.02
22930;BME280;11630;42.660;23.292;2023-05-20T11:34:42;70281.98;;;24.86;46.33
22930;BME280;11630;42.660;23.292;2023-05-20T11:37:12;70177.12;;;23.93;47.17
22930;BME280;11630;42.660;23.292;2023-05-20T11:39:43;70147.19;;;23.60;48.62
22930;BME280;11630;42.660;23.292;2023-05-20T11:42:17;70133.31;;;23.33;50.13
22930;BME280;11630;42.660;23.292;2023-05-20T11:44:52;70131.16;;;23.55;49.78
22930;BME280;11630;42.660;23.292;2023-05-20T11:47:24;70128.05;;;23.32;51.05
22930;BME280;11630;42.660;23.292;2023-05-20T11:49:59;70103.13;;;23.27;51.15
22930;BME280;11630;42.660;23.292;2023-05-20T11:52:32;70086.16;;;23.02;50.34
22930;BME280;11630;42.660;23.292;2023-05-20T11:55:01;70077.16;;;22.88;51.36
22930;BME280;11630;42.660;23.292;2023-05-20T11:57:32;70077.80;;;23.10;50.29
22930;BME280;11630;42.660;23.292;2023-05-20T12:00:03;70070.53;;;22.84;50.49
22930;BME280;11630;42.660;23.292;2023-05-20T12:02:34;70002.02;;;22.31;51.95
22930;BME280;11630;42.660;23.292;2023-05-20T12:05:06;69982.52;;;22.12;52.58
22930;BME280;11630;42.660;23.292;2023-05-20T12:07:37;69969.05;;;22.04;52.83
22930;BME280;11630;42.660;23.292;2023-05-20T12:10:09;69934.33;;;21.85;53.18
22930;BME280;11630;42.660;23.292;2023-05-20T12:12:39;69934.13;;;21.78;53.81
22930;BME280;11630;42.660;23.292;2023-05-20T12:15:11;69964.66;;;21.97;53.91
22930;BME280;11630;42.660;23.292;2023-05-20T12:17:49;69962.66;;;22.04;54.01
22930;BME280;11630;42.660;23.292;2023-05-20T12:20:23;69972.14;;;21.95;54.24
22930;BME280;11630;42.660;23.292;2023-05-20T12:22:55;69957.25;;;21.89;54.49
22930;BME280;11630;42.660;23.292;2023-05-20T12:25:28;69965.02;;;21.89;55.96
22930;BME280;11630;42.660;23.292;2023-05-20T12:28:00;69905.61;;;21.43;57.28
22930;BME280;11630;42.660;23.292;2023-05-20T12:30:31;69902.61;;;21.39;58.90
22930;BME280;11630;42.660;23.292;2023-05-20T12:33:01;69886.87;;;21.36;59.09
22930;BME280;11630;42.660;23.292;2023-05-20T12:35:40;69867.41;;;21.17;60.34
22930;BME280;11630;42.660;23.292;2023-05-20T12:38:12;69742.07;;;19.95;60.44
22930;BME280;11630;42.660;23.292;2023-05-20T12:40:43;69704.45;;;19.72;62.67
22930;BME280;11630;42.660;23.292;2023-05-20T12:43:14;69678.98;;;19.42;65.52
22930;BME280;11630;42.660;23.292;2023-05-20T12:45:45;69640.58;;;19.15;68.60
22930;BME280;11630;42.660;23.292;2023-05-20T12:48:17;69628.84;;;18.93;71.30
22930;BME280;11630;42.660;23.292;2023-05-20T12:50:52;69598.42;;;18.67;73.63
22930;BME280;11630;42.660;23.292;2023-05-20T12:53:23;69595.09;;;18.71;73.80
22930;BME280;11630;42.660;23.292;2023-05-20T12:55:54;69600.03;;;18.76;73.42
22930;BME280;11630;42.660;23.292;2023-05-20T12:58:25;69606.88;;;18.83;75.00
22930;BME280;11630;42.660;23.292;2023-05-20T13:00:57;69623.88;;;18.96;75.07
22930;BME280;11630;42.660;23.292;2023-05-20T13:03:28;69632.66;;;18.99;74.35
22930;BME280;11630;42.660;23.292;2023-05-20T13:05:59;69635.91;;;19.07;73.47
22930;BME280;11630;42.660;23.292;2023-05-20T13:08:30;69666.11;;;19.30;71.52
22930;BME280;11630;42.660;23.292;2023-05-20T13:11:01;69729.95;;;19.89;70.61